Main page
METAR-TAF:

METAR-TAF

Airports :

Yakutsk Airport

Yakutsk, Russia

latitude: 62-01N, longitude: 129-43E, elevation: 103 m

Current weather observation

The report was made 39 minutes ago, at 01:00 UTC
Wind 4 kt from the Southeast
Temperature 21°C
Humidity 64%
Pressure 1019 hPa
Visibility 10 km or more
no clouds below 1500 m and no cumulonimbus

METAR: UEEE 150100Z 13002MPS CAVOK 21/14 Q1019 R23L/09//60 NOSIG RMK QFE756

Time: 10:39 (01:39 UTC)

Forecast

The report was made 2 hours and 39 minutes ago, at 23:00 UTC
Forecast valid from 15 at 00 UTC to 16 at 06 UTC
Wind 6 kt from the South/Southeast with gusts up to 16 kt
Visibility 10 km or more
no clouds below 1500 m and no cumulonimbus

TAF: UEEE 142300Z 1500/1606 16003G08MPS CAVOK TX27/1506Z TN09/1518Z

Weather observations and forecasts of more than 4000 airports (METAR and TAF reports).

The available stations are represented by yellow and red dots on the map.

Hover mouse over dot to see the name of the station.

Then click to see weather observations and forecasts.

To change the map : click on the green buttons with a black cross to zoom in, on the green button with a dash to zoom out, or on the green arrows for adjacent maps.


METAR-TAF: